createdAt,value
2023-12-23T00:00:01.068Z,70.90
2023-12-23T00:02:29.403Z,70.97
2023-12-23T00:04:57.187Z,70.84
2023-12-23T00:07:25.216Z,70.20
2023-12-23T00:09:52.917Z,70.86
2023-12-23T00:12:21.257Z,71.19
2023-12-23T00:14:49.153Z,70.47
2023-12-23T00:17:17.150Z,70.64
2023-12-23T00:19:45.170Z,70.52
2023-12-23T00:22:13.132Z,70.54
2023-12-23T00:24:40.828Z,70.40
2023-12-23T00:27:08.782Z,70.06
2023-12-23T00:29:36.514Z,70.15
2023-12-23T00:32:05.374Z,70.29
2023-12-23T00:34:33.252Z,70.59
2023-12-23T00:37:01.124Z,70.08
2023-12-23T00:39:28.995Z,69.53
2023-12-23T00:41:56.666Z,70.27
2023-12-23T00:44:24.501Z,69.75
2023-12-23T00:46:52.427Z,69.65
2023-12-23T00:49:20.219Z,69.88
2023-12-23T00:51:50.261Z,70.04
2023-12-23T00:54:18.595Z,69.78
2023-12-23T00:56:46.855Z,69.97
2023-12-23T00:59:14.730Z,69.68
2023-12-23T01:01:45.522Z,69.99
2023-12-23T01:04:13.293Z,69.90
2023-12-23T01:06:41.343Z,69.98
2023-12-23T01:09:09.088Z,70.07
2023-12-23T01:11:36.790Z,70.42
2023-12-23T01:14:07.426Z,70.55
2023-12-23T01:16:35.268Z,71.16
2023-12-23T01:19:03.145Z,70.74
2023-12-23T01:21:30.879Z,70.02
2023-12-23T01:23:58.655Z,69.96
2023-12-23T01:26:26.342Z,70.20
2023-12-23T01:28:54.910Z,70.25
2023-12-23T01:31:22.715Z,70.12
2023-12-23T01:33:51.005Z,69.85
2023-12-23T01:36:18.822Z,69.73
2023-12-23T01:38:46.597Z,69.92
2023-12-23T01:41:16.659Z,70.10
2023-12-23T01:43:44.936Z,70.08
2023-12-23T01:46:13.282Z,70.51
2023-12-23T01:48:45.666Z,70.19
2023-12-23T01:51:14.996Z,70.28
2023-12-23T01:53:43.516Z,69.99
2023-12-23T01:56:11.623Z,69.85
2023-12-23T01:58:39.492Z,70.18
2023-12-23T02:01:07.838Z,70.63
2023-12-23T02:03:36.113Z,70.36
2023-12-23T02:06:04.257Z,70.17
2023-12-23T02:08:32.150Z,70.19
2023-12-23T02:11:07.193Z,69.79
2023-12-23T02:13:46.988Z,70.70
2023-12-23T02:16:16.027Z,70.68
2023-12-23T02:18:44.748Z,70.35
2023-12-23T02:21:12.558Z,70.22
2023-12-23T02:23:40.777Z,70.79
2023-12-23T02:26:11.591Z,70.78
2023-12-23T02:28:41.022Z,70.64
2023-12-23T02:31:13.543Z,70.84
2023-12-23T02:33:41.299Z,70.84
2023-12-23T02:36:09.911Z,70.91
2023-12-23T02:38:37.597Z,71.18
2023-12-23T02:41:06.388Z,71.18
2023-12-23T02:43:34.205Z,70.89
2023-12-23T02:46:01.983Z,71.40
2023-12-23T02:48:29.797Z,71.04
2023-12-23T02:50:57.721Z,70.85
2023-12-23T02:53:25.695Z,70.81
2023-12-23T02:55:53.570Z,71.07
2023-12-23T02:58:21.303Z,70.90
2023-12-23T03:00:49.047Z,71.13
2023-12-23T03:03:16.819Z,71.55
2023-12-23T03:05:44.674Z,71.17
2023-12-23T03:08:12.529Z,71.11
2023-12-23T03:10:40.648Z,71.20
2023-12-23T03:13:08.438Z,71.38
2023-12-23T03:15:36.170Z,71.23
2023-12-23T03:18:04.317Z,71.66
2023-12-23T03:20:32.253Z,71.67
2023-12-23T03:23:00.221Z,72.04
2023-12-23T03:25:28.030Z,72.06
2023-12-23T03:27:55.970Z,71.83
2023-12-23T03:30:23.683Z,72.22
2023-12-23T03:32:51.648Z,72.10
2023-12-23T03:35:19.801Z,72.23
2023-12-23T03:37:47.849Z,72.08
2023-12-23T03:40:15.963Z,72.05
2023-12-23T03:42:43.825Z,72.29
2023-12-23T03:45:11.620Z,71.95
2023-12-23T03:47:41.325Z,72.26
2023-12-23T03:50:11.281Z,71.87
2023-12-23T03:52:39.329Z,72.14
2023-12-23T03:55:08.369Z,71.99
2023-12-23T03:57:36.055Z,72.07
2023-12-23T04:00:05.697Z,72.05
2023-12-23T04:02:33.511Z,71.85
2023-12-23T04:05:01.416Z,72.03
2023-12-23T04:07:29.229Z,72.05
2023-12-23T04:09:56.901Z,71.91
2023-12-23T04:12:24.606Z,72.19
2023-12-23T04:14:52.283Z,72.03
2023-12-23T04:17:20.168Z,72.24
2023-12-23T04:19:50.597Z,72.25
2023-12-23T04:22:18.359Z,72.12
2023-12-23T04:24:46.058Z,72.07
2023-12-23T04:27:13.971Z,72.30
2023-12-23T04:29:42.197Z,72.44
2023-12-23T04:32:09.918Z,72.29
2023-12-23T04:34:40.872Z,72.36
2023-12-23T04:37:08.716Z,72.50
2023-12-23T04:39:36.400Z,72.45
2023-12-23T04:42:04.697Z,72.86
2023-12-23T04:44:32.409Z,72.55
2023-12-23T04:47:00.206Z,72.81
2023-12-23T04:49:28.400Z,72.77
2023-12-23T04:51:58.253Z,72.44
2023-12-23T04:54:25.977Z,72.75
2023-12-23T04:56:53.825Z,72.72
2023-12-23T04:59:21.641Z,72.48
2023-12-23T05:01:51.221Z,72.85
2023-12-23T05:04:18.978Z,72.87
2023-12-23T05:06:46.871Z,72.98
2023-12-23T05:09:15.960Z,73.13
2023-12-23T05:11:43.633Z,72.87
2023-12-23T05:14:11.445Z,72.81
2023-12-23T05:16:39.572Z,72.74
2023-12-23T05:19:07.472Z,72.30
2023-12-23T05:21:35.668Z,72.74
2023-12-23T05:24:03.821Z,72.50
2023-12-23T05:26:31.588Z,72.65
2023-12-23T05:28:59.457Z,72.50
2023-12-23T05:31:27.850Z,72.46
2023-12-23T05:33:57.461Z,72.86
2023-12-23T05:36:25.433Z,72.88
2023-12-23T05:38:53.271Z,73.08
2023-12-23T05:41:21.044Z,73.06
2023-12-23T05:43:48.992Z,72.79
2023-12-23T05:46:16.917Z,72.60
2023-12-23T05:48:44.779Z,72.90
2023-12-23T05:51:13.320Z,72.88
2023-12-23T05:53:41.075Z,73.03
2023-12-23T05:56:09.654Z,73.29
2023-12-23T05:58:37.475Z,72.90
2023-12-23T06:01:06.508Z,72.85
2023-12-23T06:03:34.268Z,73.10
2023-12-23T06:06:05.311Z,72.73
2023-12-23T06:08:35.249Z,73.19
2023-12-23T06:11:05.797Z,73.09
2023-12-23T06:13:34.017Z,73.00
2023-12-23T06:16:08.558Z,72.86
2023-12-23T06:18:36.475Z,72.84
2023-12-23T06:21:04.348Z,72.77
2023-12-23T06:23:32.164Z,72.79
2023-12-23T06:26:00.030Z,72.86
2023-12-23T06:28:27.817Z,72.93
2023-12-23T06:30:55.593Z,72.94
2023-12-23T06:33:23.583Z,72.79
2023-12-23T06:35:51.758Z,72.99
2023-12-23T06:38:19.804Z,72.95
2023-12-23T06:40:47.876Z,72.89
2023-12-23T06:43:44.211Z,72.89
2023-12-23T06:46:04.143Z,73.01
2023-12-23T06:48:34.530Z,72.93
2023-12-23T06:51:02.938Z,72.82
2023-12-23T06:53:30.986Z,72.84
2023-12-23T06:55:58.769Z,72.65
2023-12-23T06:58:30.036Z,72.83
2023-12-23T07:00:57.877Z,72.79
2023-12-23T07:03:25.853Z,72.57
2023-12-23T07:05:53.981Z,72.65
2023-12-23T07:08:24.009Z,72.66
2023-12-23T07:10:51.934Z,72.92
2023-12-23T07:13:20.401Z,72.32
2023-12-23T07:15:50.680Z,72.30
2023-12-23T07:18:18.438Z,72.06
2023-12-23T07:20:47.714Z,71.93
2023-12-23T07:23:15.850Z,72.11
2023-12-23T07:25:43.740Z,72.31
2023-12-23T07:28:11.557Z,72.37
2023-12-23T07:30:46.079Z,72.13
2023-12-23T07:33:14.842Z,72.32
2023-12-23T07:35:42.842Z,71.77
2023-12-23T07:38:11.308Z,71.81
2023-12-23T07:40:40.593Z,71.50
2023-12-23T07:43:08.799Z,71.47
2023-12-23T07:45:36.690Z,71.65
2023-12-23T07:48:05.728Z,71.86
2023-12-23T07:50:33.584Z,72.31
2023-12-23T07:53:01.446Z,71.86
2023-12-23T07:55:31.619Z,71.73
2023-12-23T07:58:00.763Z,71.58
2023-12-23T08:00:29.150Z,71.22
2023-12-23T08:02:57.058Z,70.89
2023-12-23T08:05:24.964Z,71.18
2023-12-23T08:07:52.717Z,71.11
2023-12-23T08:10:20.479Z,70.89
2023-12-23T08:12:48.422Z,70.93
2023-12-23T08:15:16.339Z,71.07
2023-12-23T08:17:45.532Z,70.78
2023-12-23T08:20:13.775Z,71.00
2023-12-23T08:22:42.807Z,70.81
2023-12-23T08:25:10.701Z,70.66
2023-12-23T08:27:39.928Z,70.36
2023-12-23T08:30:09.149Z,70.80
2023-12-23T08:32:37.202Z,71.24
2023-12-23T08:35:05.311Z,70.90
2023-12-23T08:37:33.101Z,70.85
2023-12-23T08:40:00.809Z,70.34
2023-12-23T08:42:28.541Z,70.76
2023-12-23T08:44:56.229Z,70.36
2023-12-23T08:47:24.040Z,70.42
2023-12-23T08:49:51.931Z,70.24
2023-12-23T08:52:20.313Z,70.23
2023-12-23T08:54:48.458Z,70.15
2023-12-23T08:57:16.157Z,70.40
2023-12-23T08:59:43.839Z,70.56
2023-12-23T09:02:11.772Z,70.61
2023-12-23T09:04:39.464Z,70.90
2023-12-23T09:07:09.394Z,70.87
2023-12-23T09:09:37.107Z,70.86
2023-12-23T09:12:06.184Z,71.32
2023-12-23T09:14:34.589Z,71.55
2023-12-23T09:17:02.321Z,71.68
2023-12-23T09:19:30.081Z,71.66
2023-12-23T09:21:57.789Z,71.36
2023-12-23T09:24:25.527Z,71.67
2023-12-23T09:26:53.353Z,72.05
2023-12-23T09:29:21.549Z,71.74
2023-12-23T09:31:49.455Z,71.84
2023-12-23T09:34:17.539Z,71.76
2023-12-23T09:36:45.273Z,71.67
2023-12-23T09:39:13.665Z,71.58
2023-12-23T09:41:43.615Z,71.96
2023-12-23T09:44:11.847Z,72.31
2023-12-23T09:46:39.812Z,72.65
2023-12-23T09:49:07.865Z,72.73
2023-12-23T09:51:36.199Z,73.01
2023-12-23T09:54:08.678Z,73.10
2023-12-23T09:56:37.172Z,73.13
2023-12-23T09:59:05.145Z,73.46
2023-12-23T10:01:33.214Z,73.24
2023-12-23T10:04:00.948Z,73.18
2023-12-23T10:06:29.295Z,73.02
2023-12-23T10:09:02.542Z,73.17
2023-12-23T10:11:31.547Z,73.13
2023-12-23T10:13:59.293Z,72.76
2023-12-23T10:16:29.410Z,72.81
2023-12-23T10:18:57.689Z,72.79
2023-12-23T10:21:25.565Z,72.97
2023-12-23T10:23:54.171Z,72.89
2023-12-23T10:26:22.092Z,72.77
2023-12-23T10:28:57.307Z,72.63
2023-12-23T10:31:33.244Z,73.84
2023-12-23T10:34:07.419Z,74.79
2023-12-23T10:36:37.274Z,75.92
2023-12-23T10:39:16.521Z,76.64
2023-12-23T10:42:05.451Z,77.60
2023-12-23T10:44:34.995Z,77.56
2023-12-23T10:47:05.296Z,76.83
2023-12-23T10:49:33.323Z,75.93
2023-12-23T10:52:02.268Z,75.91
2023-12-23T10:54:32.303Z,75.50
2023-12-23T10:57:02.409Z,75.08
2023-12-23T10:59:30.222Z,74.68
2023-12-23T11:01:59.106Z,74.87
2023-12-23T11:04:28.844Z,75.24
2023-12-23T11:07:00.897Z,75.99
2023-12-23T11:09:30.640Z,76.51
2023-12-23T11:11:59.243Z,76.25
2023-12-23T11:14:27.219Z,76.04
2023-12-23T11:16:59.966Z,75.98
2023-12-23T11:19:27.883Z,75.62
2023-12-23T11:22:42.300Z,75.08
2023-12-23T11:25:36.822Z,74.15
2023-12-23T11:28:11.430Z,74.18
2023-12-23T11:30:49.301Z,74.25
2023-12-23T11:33:19.976Z,76.15
2023-12-23T11:35:52.720Z,78.43
2023-12-23T11:38:27.421Z,79.53
2023-12-23T11:40:55.924Z,80.14
2023-12-23T11:43:24.318Z,80.20
2023-12-23T11:45:54.076Z,80.32
2023-12-23T11:48:23.555Z,80.42
2023-12-23T11:50:57.454Z,80.19
2023-12-23T11:53:25.364Z,79.89
2023-12-23T11:55:54.066Z,79.25
2023-12-23T11:58:21.936Z,79.05
2023-12-23T12:00:53.482Z,78.89
2023-12-23T12:03:26.118Z,78.78
2023-12-23T12:06:00.857Z,78.54
2023-12-23T12:08:29.714Z,78.28
2023-12-23T12:11:03.318Z,78.00
2023-12-23T12:13:32.732Z,77.25
2023-12-23T12:16:00.616Z,76.97
2023-12-23T12:18:30.899Z,76.65
2023-12-23T12:20:59.207Z,76.78
2023-12-23T12:23:27.341Z,77.45
2023-12-23T12:25:59.079Z,77.70
2023-12-23T12:28:27.598Z,76.96
2023-12-23T12:31:07.994Z,76.01
2023-12-23T12:33:37.155Z,74.88
2023-12-23T12:36:08.410Z,74.26
2023-12-23T12:38:36.764Z,73.01
2023-12-23T12:41:04.712Z,73.18
2023-12-23T12:43:35.552Z,72.85
2023-12-23T12:46:03.918Z,73.19
2023-12-23T12:48:31.945Z,74.05
2023-12-23T12:51:00.098Z,74.90
2023-12-23T12:53:31.387Z,75.48
2023-12-23T12:56:12.919Z,76.20
2023-12-23T12:58:41.997Z,76.32
2023-12-23T13:01:10.531Z,76.45
2023-12-23T13:03:38.325Z,76.59
2023-12-23T13:06:06.850Z,76.53
2023-12-23T13:08:34.849Z,76.37
2023-12-23T13:11:02.980Z,75.91
2023-12-23T13:13:31.081Z,75.90
2023-12-23T13:15:58.985Z,75.98
2023-12-23T13:18:27.668Z,76.06
2023-12-23T13:20:55.598Z,76.23
2023-12-23T13:23:23.655Z,76.55
2023-12-23T13:25:51.498Z,76.78
2023-12-23T13:28:19.308Z,76.87
2023-12-23T13:30:47.175Z,77.17
2023-12-23T13:33:14.983Z,77.52
2023-12-23T13:35:43.577Z,77.76
2023-12-23T13:38:11.447Z,77.96
2023-12-23T13:40:39.167Z,78.29
2023-12-23T13:43:07.564Z,78.47
2023-12-23T13:45:37.885Z,78.58
2023-12-23T13:48:06.280Z,78.75
2023-12-23T13:50:36.576Z,78.91
2023-12-23T13:53:08.660Z,79.08
2023-12-23T13:55:37.045Z,79.18
2023-12-23T13:58:11.093Z,79.28
2023-12-23T14:00:39.326Z,79.55
2023-12-23T14:03:07.178Z,79.87
2023-12-23T14:05:36.593Z,79.97
2023-12-23T14:08:06.702Z,80.04
2023-12-23T14:10:34.551Z,80.25
2023-12-23T14:13:02.406Z,80.42
2023-12-23T14:15:30.091Z,80.59
2023-12-23T14:17:57.887Z,80.72
2023-12-23T14:20:27.993Z,80.86
2023-12-23T14:22:55.924Z,80.89
2023-12-23T14:25:24.469Z,80.92
2023-12-23T14:27:55.570Z,80.99
2023-12-23T14:30:23.358Z,81.20
2023-12-23T14:32:51.406Z,81.41
2023-12-23T14:35:19.961Z,81.72
2023-12-23T14:37:50.934Z,81.78
2023-12-23T14:40:20.021Z,81.69
2023-12-23T14:42:50.243Z,81.77
2023-12-23T14:45:18.503Z,81.87
2023-12-23T14:47:47.784Z,82.14
2023-12-23T14:50:20.906Z,82.40
2023-12-23T14:52:49.057Z,82.52
2023-12-23T14:55:17.519Z,82.78
2023-12-23T14:57:45.742Z,82.80
2023-12-23T15:00:14.295Z,82.94
2023-12-23T15:02:42.175Z,83.12
2023-12-23T15:05:10.170Z,83.08
2023-12-23T15:07:41.172Z,83.09
2023-12-23T15:10:11.008Z,83.07
2023-12-23T15:12:41.983Z,83.15
2023-12-23T15:15:10.769Z,83.30
2023-12-23T15:17:38.916Z,83.27
2023-12-23T15:20:08.143Z,83.27
2023-12-23T15:22:36.581Z,83.48
2023-12-23T15:25:04.940Z,83.47
2023-12-23T15:27:32.857Z,83.45
2023-12-23T15:30:02.969Z,83.59
2023-12-23T15:32:31.464Z,83.73
2023-12-23T15:34:59.254Z,83.90
2023-12-23T15:37:28.060Z,84.02
2023-12-23T15:39:57.976Z,84.32
2023-12-23T15:42:25.745Z,84.75
2023-12-23T15:44:54.006Z,84.73
2023-12-23T15:47:21.825Z,84.96
2023-12-23T15:49:49.633Z,85.20
2023-12-23T15:52:17.372Z,84.97
2023-12-23T15:54:46.442Z,85.38
2023-12-23T15:57:14.145Z,85.54
2023-12-23T15:59:41.845Z,85.61
2023-12-23T16:02:11.819Z,85.76
2023-12-23T16:04:39.751Z,85.58
2023-12-23T16:07:09.732Z,85.54
2023-12-23T16:09:37.636Z,85.63
2023-12-23T16:12:06.552Z,85.67
2023-12-23T16:14:36.575Z,85.65
2023-12-23T16:17:04.618Z,85.67
2023-12-23T16:19:35.890Z,85.63
2023-12-23T16:22:07.225Z,85.68
2023-12-23T16:24:34.992Z,85.75
2023-12-23T16:27:02.728Z,85.74
2023-12-23T16:29:30.640Z,85.71
2023-12-23T16:32:00.248Z,85.76
2023-12-23T16:34:29.880Z,85.83
2023-12-23T16:37:00.805Z,85.82
2023-12-23T16:39:28.729Z,85.75
2023-12-23T16:41:56.481Z,85.66
2023-12-23T16:44:24.235Z,85.59
2023-12-23T16:46:52.356Z,85.83
2023-12-23T16:49:20.188Z,86.53
2023-12-23T16:51:50.113Z,86.35
2023-12-23T16:54:17.861Z,86.63
2023-12-23T16:56:45.645Z,87.36
2023-12-23T16:59:13.439Z,87.55
2023-12-23T17:01:43.306Z,87.39
2023-12-23T17:04:13.334Z,87.38
2023-12-23T17:06:42.758Z,87.03
2023-12-23T17:09:10.604Z,86.79
2023-12-23T17:11:40.552Z,86.79
2023-12-23T17:14:08.493Z,86.62
2023-12-23T17:16:36.551Z,86.17
2023-12-23T17:19:04.964Z,85.76
2023-12-23T17:21:33.133Z,85.59
2023-12-23T17:24:00.890Z,85.42
2023-12-23T17:26:28.995Z,85.32
2023-12-23T17:28:56.821Z,85.22
2023-12-23T17:31:24.621Z,85.17
2023-12-23T17:33:52.350Z,85.22
2023-12-23T17:36:20.221Z,85.18
2023-12-23T17:38:51.155Z,85.26
2023-12-23T17:41:19.298Z,85.23
2023-12-23T17:43:49.538Z,85.31
2023-12-23T17:46:17.296Z,85.44
2023-12-23T17:48:45.107Z,85.50
2023-12-23T17:51:12.945Z,85.56
2023-12-23T17:53:41.614Z,85.65
2023-12-23T17:56:11.682Z,85.81
2023-12-23T17:58:42.742Z,85.83
2023-12-23T18:01:11.391Z,86.06
2023-12-23T18:03:42.388Z,86.09
2023-12-23T18:06:11.654Z,86.09
2023-12-23T18:08:39.495Z,86.05
2023-12-23T18:11:07.320Z,86.01
2023-12-23T18:13:35.223Z,85.92
2023-12-23T18:16:03.210Z,85.84
2023-12-23T18:18:31.248Z,85.77
2023-12-23T18:21:01.110Z,85.74
2023-12-23T18:23:28.857Z,85.81
2023-12-23T18:25:59.446Z,85.92
2023-12-23T18:28:27.275Z,86.03
2023-12-23T18:30:55.109Z,86.04
2023-12-23T18:33:23.519Z,86.26
2023-12-23T18:35:51.438Z,86.35
2023-12-23T18:38:19.224Z,86.41
2023-12-23T18:40:49.148Z,86.44
2023-12-23T18:43:16.868Z,86.63
2023-12-23T18:45:44.563Z,86.76
2023-12-23T18:48:13.327Z,86.84
2023-12-23T18:50:41.162Z,87.01
2023-12-23T18:53:08.886Z,87.13
2023-12-23T18:55:38.301Z,87.07
2023-12-23T18:58:08.481Z,87.17
2023-12-23T19:00:37.244Z,87.29
2023-12-23T19:03:09.095Z,87.49
2023-12-23T19:05:39.433Z,87.67
2023-12-23T19:08:08.488Z,87.81
2023-12-23T19:10:36.570Z,87.75
2023-12-23T19:13:04.493Z,87.68
2023-12-23T19:15:32.242Z,87.68
2023-12-23T19:18:00.141Z,87.62
2023-12-23T19:20:28.196Z,87.72
2023-12-23T19:22:56.429Z,87.72
2023-12-23T19:25:24.441Z,87.81
2023-12-23T19:27:52.569Z,87.83
2023-12-23T19:30:20.639Z,87.86
2023-12-23T19:32:49.665Z,87.99
2023-12-23T19:35:19.556Z,88.03
2023-12-23T19:37:47.451Z,88.14
2023-12-23T19:40:15.388Z,88.18
2023-12-23T19:42:43.121Z,88.27
2023-12-23T19:45:13.300Z,88.25
2023-12-23T19:47:42.187Z,88.20
2023-12-23T19:50:10.667Z,88.15
2023-12-23T19:52:38.742Z,88.14
2023-12-23T19:55:06.979Z,88.11
2023-12-23T19:57:34.739Z,88.08
2023-12-23T20:00:06.208Z,88.04
2023-12-23T20:02:34.051Z,88.02
2023-12-23T20:05:05.014Z,88.04
2023-12-23T20:07:33.207Z,88.01
2023-12-23T20:10:00.959Z,87.98
2023-12-23T20:12:28.765Z,87.95
2023-12-23T20:14:58.814Z,87.92
2023-12-23T20:17:26.748Z,87.86
2023-12-23T20:19:54.766Z,87.81
2023-12-23T20:22:22.633Z,87.65
2023-12-23T20:24:50.522Z,87.31
2023-12-23T20:27:18.215Z,86.34
2023-12-23T20:29:46.395Z,85.90
2023-12-23T20:32:14.319Z,85.61
2023-12-23T20:34:42.292Z,85.54
2023-12-23T20:37:10.367Z,85.63
2023-12-23T20:39:38.190Z,85.71
2023-12-23T20:42:09.247Z,85.80
2023-12-23T20:44:36.990Z,85.81
2023-12-23T20:47:05.055Z,85.81
2023-12-23T20:49:33.166Z,85.62
2023-12-23T20:52:01.076Z,85.46
2023-12-23T20:54:28.896Z,85.42
2023-12-23T20:56:56.667Z,85.52
2023-12-23T20:59:24.679Z,85.57
2023-12-23T21:01:52.690Z,85.44
2023-12-23T21:04:20.494Z,85.29
2023-12-23T21:06:48.706Z,85.16
2023-12-23T21:09:16.422Z,85.11
2023-12-23T21:11:44.249Z,85.15
2023-12-23T21:14:12.388Z,85.16
2023-12-23T21:16:40.150Z,85.25
2023-12-23T21:19:10.335Z,85.39
2023-12-23T21:21:41.269Z,85.40
2023-12-23T21:24:09.233Z,85.41
2023-12-23T21:26:37.075Z,85.48
2023-12-23T21:29:04.886Z,85.38
2023-12-23T21:31:32.623Z,85.27
2023-12-23T21:34:00.466Z,85.29
2023-12-23T21:36:34.771Z,85.20
2023-12-23T21:39:02.833Z,85.03
2023-12-23T21:41:32.742Z,84.90
2023-12-23T21:44:01.276Z,84.85
2023-12-23T21:46:29.263Z,84.66
2023-12-23T21:48:58.900Z,84.56
2023-12-23T21:51:26.831Z,84.48
2023-12-23T21:53:55.153Z,84.47
2023-12-23T21:56:22.983Z,84.48
2023-12-23T21:58:51.518Z,84.28
2023-12-23T22:01:19.287Z,84.16
2023-12-23T22:03:47.189Z,84.07
2023-12-23T22:06:17.265Z,83.81
2023-12-23T22:08:46.332Z,83.99
2023-12-23T22:11:14.900Z,83.81
2023-12-23T22:13:43.339Z,83.77
2023-12-23T22:16:11.090Z,83.65
2023-12-23T22:18:39.222Z,83.60
2023-12-23T22:21:07.160Z,83.64
2023-12-23T22:23:34.874Z,83.50
2023-12-23T22:26:02.587Z,83.59
2023-12-23T22:28:30.286Z,83.58
2023-12-23T22:30:58.001Z,83.60
2023-12-23T22:33:25.893Z,83.54
2023-12-23T22:35:53.654Z,83.65
2023-12-23T22:38:21.419Z,83.68
2023-12-23T22:40:49.089Z,83.69
2023-12-23T22:43:19.143Z,83.67
2023-12-23T22:45:47.297Z,83.90
2023-12-23T22:48:15.085Z,84.02
2023-12-23T22:50:43.391Z,84.05
2023-12-23T22:53:11.216Z,84.19
2023-12-23T22:55:39.546Z,84.35
2023-12-23T22:58:08.512Z,84.33
2023-12-23T23:00:37.705Z,84.32
2023-12-23T23:03:05.748Z,84.24
2023-12-23T23:05:33.686Z,84.21
2023-12-23T23:08:03.254Z,84.18
2023-12-23T23:10:31.073Z,84.06
2023-12-23T23:12:58.842Z,83.85
2023-12-23T23:15:26.597Z,83.66
2023-12-23T23:17:54.492Z,83.78
2023-12-23T23:20:22.464Z,83.82
2023-12-23T23:22:50.740Z,83.77
2023-12-23T23:25:18.657Z,83.54
2023-12-23T23:27:46.787Z,83.48
2023-12-23T23:30:14.881Z,83.17
2023-12-23T23:32:42.630Z,83.28
2023-12-23T23:35:12.182Z,83.25
2023-12-23T23:37:41.585Z,83.00
2023-12-23T23:40:09.871Z,82.81
2023-12-23T23:42:38.266Z,82.88
2023-12-23T23:45:06.733Z,82.83
2023-12-23T23:47:34.841Z,83.07
2023-12-23T23:50:06.041Z,83.13
2023-12-23T23:52:36.109Z,83.08
2023-12-23T23:55:08.259Z,82.99
2023-12-23T23:57:36.250Z,82.91
